createdAt,value
2022-07-29T00:02:00.934Z,15.44
2022-07-29T00:05:03.752Z,15.44
2022-07-29T00:08:09.378Z,15.53
2022-07-29T00:11:14.432Z,15.44
2022-07-29T00:14:17.277Z,15.44
2022-07-29T00:17:19.512Z,15.48
2022-07-29T00:20:21.863Z,15.42
2022-07-29T00:23:23.899Z,15.43
2022-07-29T00:26:28.694Z,15.46
2022-07-29T00:29:34.078Z,15.46
2022-07-29T00:32:37.184Z,15.39
2022-07-29T00:35:44.991Z,15.39
2022-07-29T00:38:51.349Z,15.32
2022-07-29T00:41:53.480Z,15.25
2022-07-29T00:44:55.821Z,15.25
2022-07-29T00:47:57.879Z,15.23
2022-07-29T00:51:01.390Z,15.19
2022-07-29T00:54:04.677Z,15.20
2022-07-29T00:57:10.056Z,15.15
2022-07-29T01:00:15.738Z,15.10
2022-07-29T01:03:18.066Z,15.08
2022-07-29T01:06:20.298Z,15.01
2022-07-29T01:09:35.926Z,15.00
2022-07-29T01:12:48.082Z,14.90
2022-07-29T01:16:04.556Z,14.93
2022-07-29T01:19:35.311Z,14.91
2022-07-29T01:23:08.261Z,14.89
2022-07-29T01:26:28.437Z,14.85
2022-07-29T01:29:38.832Z,14.82
2022-07-29T01:32:42.034Z,14.78
2022-07-29T01:35:45.328Z,14.71
2022-07-29T01:38:55.678Z,14.71
2022-07-29T01:42:03.175Z,14.70
2022-07-29T01:45:34.004Z,14.64
2022-07-29T01:48:42.052Z,14.60
2022-07-29T01:52:01.865Z,14.50
2022-07-29T01:55:09.849Z,14.44
2022-07-29T01:58:13.341Z,14.52
2022-07-29T02:01:16.973Z,14.52
2022-07-29T02:04:28.965Z,14.52
2022-07-29T02:07:34.058Z,14.49
2022-07-29T02:10:36.808Z,14.45
2022-07-29T02:13:39.546Z,14.42
2022-07-29T02:16:42.120Z,14.40
2022-07-29T02:19:45.432Z,14.36
2022-07-29T02:22:48.375Z,14.32
2022-07-29T02:25:53.541Z,14.30
2022-07-29T02:28:57.822Z,14.25
2022-07-29T02:32:01.784Z,14.15
2022-07-29T02:35:04.866Z,14.04
2022-07-29T02:38:26.240Z,14.09
2022-07-29T02:41:51.547Z,14.01
2022-07-29T02:44:53.939Z,13.97
2022-07-29T02:47:59.444Z,14.01
2022-07-29T02:51:44.057Z,13.95
2022-07-29T02:55:20.648Z,13.92
2022-07-29T02:58:33.856Z,13.91
2022-07-29T03:01:36.639Z,13.85
2022-07-29T03:04:41.779Z,13.85
2022-07-29T03:07:47.747Z,13.83
2022-07-29T03:10:51.928Z,13.75
2022-07-29T03:13:54.041Z,13.66
2022-07-29T03:16:56.589Z,13.68
2022-07-29T03:19:59.825Z,13.73
2022-07-29T03:23:02.047Z,13.74
2022-07-29T03:26:04.198Z,13.73
2022-07-29T03:29:06.776Z,13.61
2022-07-29T03:32:09.187Z,13.65
2022-07-29T03:35:11.613Z,13.63
2022-07-29T03:38:13.666Z,13.66
2022-07-29T03:41:17.107Z,13.72
2022-07-29T03:44:25.929Z,13.68
2022-07-29T03:47:36.830Z,13.64
2022-07-29T03:50:52.318Z,13.65
2022-07-29T03:53:54.707Z,13.64
2022-07-29T03:57:00.822Z,13.64
2022-07-29T04:00:06.263Z,13.73
2022-07-29T04:03:10.750Z,13.72
2022-07-29T04:06:14.255Z,13.75
2022-07-29T04:09:16.257Z,13.76
2022-07-29T04:12:18.552Z,13.76
2022-07-29T04:15:20.813Z,13.81
2022-07-29T04:18:23.029Z,13.85
2022-07-29T04:21:25.309Z,13.88
2022-07-29T04:24:27.794Z,13.85
2022-07-29T04:27:29.858Z,13.83
2022-07-29T04:30:33.130Z,13.90
2022-07-29T04:33:35.133Z,13.90
2022-07-29T04:36:37.420Z,13.95
2022-07-29T04:39:39.436Z,14.08
2022-07-29T04:42:46.339Z,14.22
2022-07-29T04:45:49.392Z,14.34
2022-07-29T04:48:51.907Z,14.51
2022-07-29T04:51:54.383Z,14.60
2022-07-29T04:54:56.771Z,14.64
2022-07-29T04:57:58.989Z,14.79
2022-07-29T05:01:01.333Z,14.93
2022-07-29T05:04:03.518Z,15.06
2022-07-29T05:07:05.878Z,15.15
2022-07-29T05:10:08.662Z,15.27
2022-07-29T05:13:10.925Z,15.36
2022-07-29T05:16:14.296Z,15.52
2022-07-29T05:19:16.814Z,15.60
2022-07-29T05:22:20.073Z,15.69
2022-07-29T05:25:22.657Z,15.89
2022-07-29T05:28:24.608Z,16.03
2022-07-29T05:31:26.874Z,16.12
2022-07-29T05:34:29.206Z,16.20
2022-07-29T05:37:32.050Z,16.31
2022-07-29T05:40:35.141Z,16.49
2022-07-29T05:43:37.288Z,16.58
2022-07-29T05:46:39.456Z,16.67
2022-07-29T05:49:41.932Z,16.72
2022-07-29T05:52:44.010Z,16.98
2022-07-29T05:55:46.324Z,17.18
2022-07-29T05:58:48.358Z,17.35
2022-07-29T06:01:50.659Z,17.70
2022-07-29T06:04:52.856Z,17.97
2022-07-29T06:07:55.133Z,18.36
2022-07-29T06:10:57.228Z,18.67
2022-07-29T06:13:59.514Z,19.08
2022-07-29T06:17:01.664Z,19.62
2022-07-29T06:20:04.700Z,20.13
2022-07-29T06:23:06.994Z,20.37
2022-07-29T06:26:09.737Z,20.99
2022-07-29T06:29:12.038Z,21.44
2022-07-29T06:32:14.534Z,21.83
2022-07-29T06:38:42.073Z,22.49
2022-07-29T06:41:49.995Z,22.74
2022-07-29T06:44:52.293Z,23.01
2022-07-29T06:47:54.399Z,23.15
2022-07-29T06:50:56.673Z,22.90
2022-07-29T06:54:12.865Z,23.07
2022-07-29T06:57:15.257Z,23.23
2022-07-29T07:00:17.400Z,23.18
2022-07-29T07:03:20.176Z,23.60
2022-07-29T07:06:22.238Z,23.81
2022-07-29T07:09:24.563Z,23.95
2022-07-29T07:12:42.309Z,24.39
2022-07-29T07:15:46.358Z,24.76
2022-07-29T07:18:48.478Z,25.39
2022-07-29T07:21:50.739Z,25.56
2022-07-29T07:24:52.795Z,25.57
2022-07-29T07:27:55.387Z,25.66
2022-07-29T07:30:57.417Z,25.70
2022-07-29T07:34:00.059Z,25.74
2022-07-29T07:37:02.089Z,25.97
2022-07-29T07:40:05.533Z,26.32
2022-07-29T07:43:07.651Z,25.99
2022-07-29T07:46:10.067Z,26.32
2022-07-29T07:49:12.320Z,26.71
2022-07-29T07:52:19.572Z,27.30
2022-07-29T07:55:21.776Z,27.16
2022-07-29T07:58:24.006Z,27.08
2022-07-29T08:01:26.126Z,27.11
2022-07-29T08:04:29.480Z,27.37
2022-07-29T08:07:31.896Z,27.47
2022-07-29T08:10:53.113Z,26.94
2022-07-29T08:13:55.697Z,27.04
2022-07-29T08:16:58.259Z,27.27
2022-07-29T08:20:00.348Z,27.57
2022-07-29T08:23:03.755Z,27.47
2022-07-29T08:26:11.235Z,27.63
2022-07-29T08:29:18.350Z,27.70
2022-07-29T08:32:43.463Z,27.97
2022-07-29T08:35:44.095Z,27.55
2022-07-29T08:38:46.420Z,27.62
2022-07-29T08:41:57.411Z,27.88
2022-07-29T08:44:59.937Z,28.27
2022-07-29T08:48:02.247Z,28.36
2022-07-29T08:51:04.910Z,28.39
2022-07-29T08:54:09.594Z,28.58
2022-07-29T08:57:15.184Z,28.58
2022-07-29T09:00:19.399Z,28.75
2022-07-29T09:03:24.685Z,28.64
2022-07-29T09:06:32.409Z,28.82
2022-07-29T09:09:34.697Z,29.16
2022-07-29T09:12:38.155Z,29.24
2022-07-29T09:15:40.346Z,29.49
2022-07-29T09:18:44.877Z,29.22
2022-07-29T09:22:06.224Z,28.90
2022-07-29T09:25:09.091Z,28.66
2022-07-29T09:28:13.724Z,28.36
2022-07-29T09:31:16.244Z,27.83
2022-07-29T09:34:26.603Z,27.64
2022-07-29T09:37:30.105Z,27.15
2022-07-29T09:40:32.117Z,26.91
2022-07-29T09:43:35.096Z,26.99
2022-07-29T09:46:37.432Z,26.67
2022-07-29T09:49:59.418Z,26.98
2022-07-29T09:53:01.567Z,27.11
2022-07-29T09:56:05.232Z,27.12
2022-07-29T09:59:08.970Z,27.62
2022-07-29T10:02:20.319Z,28.21
2022-07-29T10:05:36.106Z,28.49
2022-07-29T10:08:39.314Z,27.99
2022-07-29T10:11:57.203Z,27.71
2022-07-29T10:14:59.490Z,27.67
2022-07-29T10:18:01.552Z,27.66
2022-07-29T10:21:04.067Z,27.13
2022-07-29T10:24:07.216Z,27.34
2022-07-29T10:27:17.444Z,27.34
2022-07-29T10:30:20.638Z,27.21
2022-07-29T10:33:38.450Z,27.01
2022-07-29T10:36:55.340Z,27.23
2022-07-29T10:40:23.309Z,27.43
2022-07-29T10:43:37.097Z,27.15
2022-07-29T10:46:41.886Z,26.98
2022-07-29T10:49:59.145Z,27.19
2022-07-29T10:53:04.920Z,27.69
2022-07-29T10:56:27.625Z,27.78
2022-07-29T10:59:36.362Z,27.87
2022-07-29T11:02:44.693Z,28.09
2022-07-29T11:05:56.815Z,28.18
2022-07-29T11:09:25.916Z,28.37
2022-07-29T11:12:40.222Z,28.60
2022-07-29T11:15:54.820Z,28.77
2022-07-29T11:19:13.627Z,28.72
2022-07-29T11:22:34.977Z,29.04
2022-07-29T11:25:50.237Z,28.87
2022-07-29T11:28:54.273Z,29.40
2022-07-29T11:35:38.479Z,29.40
2022-07-29T11:38:42.611Z,28.78
2022-07-29T11:41:45.081Z,28.93
2022-07-29T11:45:04.401Z,29.19
2022-07-29T11:48:28.333Z,29.00
2022-07-29T11:51:32.990Z,28.81
2022-07-29T11:55:00.762Z,28.55
2022-07-29T11:58:12.036Z,28.58
2022-07-29T12:01:19.648Z,28.69
2022-07-29T12:04:24.482Z,28.20
2022-07-29T12:07:03.208Z,29.28
2022-07-29T12:07:35.159Z,28.09
2022-07-29T12:10:38.812Z,28.10
2022-07-29T12:13:41.022Z,28.07
2022-07-29T12:16:43.412Z,28.20
2022-07-29T12:19:46.231Z,28.28
2022-07-29T12:22:50.247Z,28.18
2022-07-29T12:25:52.348Z,28.18
2022-07-29T12:28:56.719Z,28.26
2022-07-29T12:31:59.622Z,28.52
2022-07-29T12:35:10.225Z,28.66
2022-07-29T12:38:13.491Z,28.54
2022-07-29T12:41:15.945Z,28.97
2022-07-29T12:44:18.075Z,28.91
2022-07-29T12:47:21.465Z,28.68
2022-07-29T12:50:26.436Z,28.33
2022-07-29T12:53:29.374Z,28.29
2022-07-29T12:56:46.829Z,28.38
2022-07-29T13:00:09.879Z,28.29
2022-07-29T13:03:12.010Z,28.09
2022-07-29T13:06:36.029Z,28.19
2022-07-29T13:09:47.137Z,28.25
2022-07-29T13:13:10.481Z,28.18
2022-07-29T13:16:12.855Z,27.80
2022-07-29T13:19:15.200Z,28.01
2022-07-29T13:22:22.389Z,27.92
2022-07-29T13:25:26.947Z,27.70
2022-07-29T13:28:29.025Z,27.70
2022-07-29T13:31:31.498Z,27.57
2022-07-29T13:34:33.597Z,27.46
2022-07-29T13:37:39.188Z,27.29
2022-07-29T13:40:42.092Z,27.52
2022-07-29T13:43:44.908Z,27.53
2022-07-29T13:46:46.990Z,27.61
2022-07-29T13:49:49.539Z,27.90
2022-07-29T13:52:52.173Z,28.00
2022-07-29T13:55:55.857Z,27.83
2022-07-29T13:58:58.207Z,27.75
2022-07-29T14:02:01.185Z,27.62
2022-07-29T14:05:07.985Z,27.57
2022-07-29T14:08:10.987Z,27.28
2022-07-29T14:11:13.026Z,27.03
2022-07-29T14:14:15.393Z,27.16
2022-07-29T14:17:17.855Z,27.42
2022-07-29T14:20:20.257Z,27.38
2022-07-29T14:23:22.397Z,27.47
2022-07-29T14:26:24.817Z,27.60
2022-07-29T14:29:37.247Z,27.44
2022-07-29T14:32:40.908Z,27.40
2022-07-29T14:35:42.994Z,26.90
2022-07-29T14:38:45.271Z,26.94
2022-07-29T14:41:47.373Z,27.15
2022-07-29T14:44:50.235Z,27.47
2022-07-29T14:47:56.379Z,27.43
2022-07-29T14:51:04.568Z,27.41
2022-07-29T14:54:07.274Z,27.17
2022-07-29T14:57:09.680Z,27.22
2022-07-29T15:00:12.464Z,27.10
2022-07-29T15:03:22.835Z,27.13
2022-07-29T15:06:27.037Z,27.19
2022-07-29T15:09:29.380Z,27.22
2022-07-29T15:12:32.193Z,27.07
2022-07-29T15:15:34.543Z,27.24
2022-07-29T15:18:38.624Z,27.00
2022-07-29T15:21:48.230Z,27.12
2022-07-29T15:24:51.136Z,27.27
2022-07-29T15:27:56.627Z,27.06
2022-07-29T15:31:01.332Z,26.90
2022-07-29T15:34:06.252Z,26.97
2022-07-29T15:37:08.545Z,27.03
2022-07-29T15:40:11.736Z,26.96
2022-07-29T15:43:13.985Z,26.93
2022-07-29T15:46:36.982Z,26.95
2022-07-29T15:49:48.560Z,26.86
2022-07-29T15:52:51.926Z,26.55
2022-07-29T15:55:53.972Z,26.45
2022-07-29T15:58:56.404Z,26.42
2022-07-29T16:01:58.502Z,26.53
2022-07-29T16:05:00.757Z,26.43
2022-07-29T16:08:02.882Z,26.45
2022-07-29T16:11:05.172Z,26.40
2022-07-29T16:14:07.768Z,26.40
2022-07-29T16:17:14.231Z,26.33
2022-07-29T16:20:17.592Z,26.52
2022-07-29T16:23:19.848Z,26.57
2022-07-29T16:26:21.832Z,26.70
2022-07-29T16:29:24.494Z,26.63
2022-07-29T16:32:26.823Z,26.54
2022-07-29T16:35:39.550Z,26.76
2022-07-29T16:38:47.284Z,26.72
2022-07-29T16:41:49.906Z,26.56
2022-07-29T16:44:51.943Z,26.41
2022-07-29T16:47:59.881Z,26.33
2022-07-29T16:51:02.382Z,26.26
2022-07-29T16:54:04.962Z,26.19
2022-07-29T16:57:07.214Z,26.03
2022-07-29T17:00:10.410Z,25.96
2022-07-29T17:03:12.785Z,26.21
2022-07-29T17:06:15.863Z,26.40
2022-07-29T17:09:17.992Z,26.26
2022-07-29T17:12:20.257Z,26.26
2022-07-29T17:15:22.275Z,26.20
2022-07-29T17:18:24.571Z,25.68
2022-07-29T17:21:28.042Z,25.61
2022-07-29T17:24:30.785Z,25.63
2022-07-29T17:27:33.156Z,25.65
2022-07-29T17:30:35.444Z,25.47
2022-07-29T17:33:37.481Z,25.48
2022-07-29T17:36:40.061Z,25.49
2022-07-29T17:39:43.185Z,25.47
2022-07-29T17:42:45.465Z,25.40
2022-07-29T17:45:50.132Z,25.39
2022-07-29T17:48:54.673Z,25.28
2022-07-29T17:52:00.739Z,25.17
2022-07-29T17:55:03.764Z,25.17
2022-07-29T17:58:08.790Z,25.16
2022-07-29T18:01:11.298Z,25.17
2022-07-29T18:04:15.243Z,25.13
2022-07-29T18:07:17.698Z,25.00
2022-07-29T18:10:19.723Z,24.83
2022-07-29T18:13:22.156Z,24.87
2022-07-29T18:16:24.828Z,24.73
2022-07-29T18:19:27.285Z,24.57
2022-07-29T18:22:29.317Z,24.50
2022-07-29T18:25:32.105Z,24.46
2022-07-29T18:28:34.229Z,24.30
2022-07-29T18:31:36.643Z,24.19
2022-07-29T18:34:38.684Z,23.89
2022-07-29T18:38:02.168Z,23.70
2022-07-29T18:41:03.021Z,23.44
2022-07-29T18:44:05.747Z,23.20
2022-07-29T18:47:08.343Z,22.99
2022-07-29T18:50:14.683Z,22.77
2022-07-29T18:53:17.273Z,22.62
2022-07-29T18:56:19.467Z,22.49
2022-07-29T18:59:21.567Z,22.31
2022-07-29T19:02:24.252Z,22.21
2022-07-29T19:05:26.986Z,22.11
2022-07-29T19:08:29.401Z,22.05
2022-07-29T19:11:31.713Z,21.91
2022-07-29T19:14:34.096Z,21.73
2022-07-29T19:17:36.395Z,21.55
2022-07-29T19:20:40.135Z,21.45
2022-07-29T19:24:05.243Z,21.33
2022-07-29T19:27:05.755Z,21.19
2022-07-29T19:30:09.495Z,21.06
2022-07-29T19:33:14.564Z,20.93
2022-07-29T19:36:17.279Z,20.81
2022-07-29T19:39:35.350Z,20.68
2022-07-29T19:42:38.271Z,20.51
2022-07-29T19:45:40.945Z,20.41
2022-07-29T19:48:43.909Z,20.31
2022-07-29T19:51:46.250Z,20.20
2022-07-29T19:54:48.654Z,20.07
2022-07-29T19:57:52.860Z,20.00
2022-07-29T20:00:56.115Z,19.89
2022-07-29T20:04:02.112Z,19.80
2022-07-29T20:07:04.873Z,19.74
2022-07-29T20:10:10.055Z,19.59
2022-07-29T20:13:13.798Z,19.37
2022-07-29T20:16:16.029Z,19.20
2022-07-29T20:19:21.535Z,19.16
2022-07-29T20:22:27.876Z,19.13
2022-07-29T20:25:31.631Z,18.99
2022-07-29T20:28:34.286Z,18.94
2022-07-29T20:31:37.250Z,18.96
2022-07-29T20:34:43.190Z,18.86
2022-07-29T20:37:52.175Z,18.86
2022-07-29T20:41:02.447Z,18.70
2022-07-29T20:44:04.916Z,18.68
2022-07-29T20:47:07.701Z,18.59
2022-07-29T20:50:10.957Z,18.58
2022-07-29T20:53:13.730Z,18.54
2022-07-29T20:56:15.928Z,18.42
2022-07-29T20:59:18.414Z,18.32
2022-07-29T21:02:20.502Z,18.28
2022-07-29T21:05:23.469Z,18.18
2022-07-29T21:08:26.212Z,18.19
2022-07-29T21:11:44.193Z,18.07
2022-07-29T21:14:47.952Z,18.04
2022-07-29T21:17:52.527Z,18.06
2022-07-29T21:20:55.472Z,17.97
2022-07-29T21:23:57.653Z,17.99
2022-07-29T21:27:21.139Z,17.93
2022-07-29T21:30:23.957Z,17.92
2022-07-29T21:33:27.656Z,17.83
2022-07-29T21:39:52.111Z,17.77
2022-07-29T21:42:54.514Z,17.62
2022-07-29T21:45:57.550Z,17.62
2022-07-29T21:49:00.189Z,17.64
2022-07-29T21:52:02.269Z,17.57
2022-07-29T21:55:04.828Z,17.52
2022-07-29T21:58:07.070Z,17.56
2022-07-29T22:01:09.994Z,17.67
2022-07-29T22:04:12.243Z,17.60
2022-07-29T22:07:14.608Z,17.52
2022-07-29T22:10:16.750Z,17.56
2022-07-29T22:13:19.049Z,17.67
2022-07-29T22:16:21.126Z,17.51
2022-07-29T22:19:27.700Z,17.45
2022-07-29T22:22:33.118Z,17.53
2022-07-29T22:25:35.892Z,17.71
2022-07-29T22:28:38.059Z,17.73
2022-07-29T22:31:40.387Z,17.80
2022-07-29T22:34:42.533Z,17.63
2022-07-29T22:37:45.002Z,17.64
2022-07-29T22:40:48.743Z,17.61
2022-07-29T22:43:53.151Z,17.59
2022-07-29T22:46:55.910Z,17.61
2022-07-29T22:49:58.173Z,17.62
2022-07-29T22:53:00.132Z,17.68
2022-07-29T22:56:02.521Z,17.68
2022-07-29T22:59:04.781Z,17.64
2022-07-29T23:02:07.150Z,17.54
2022-07-29T23:05:10.263Z,17.62
2022-07-29T23:08:12.642Z,17.60
2022-07-29T23:11:14.757Z,17.62
2022-07-29T23:14:17.016Z,17.64
2022-07-29T23:17:19.376Z,17.53
2022-07-29T23:20:21.762Z,17.53
2022-07-29T23:23:24.302Z,17.71
2022-07-29T23:26:28.107Z,17.56
2022-07-29T23:29:34.955Z,17.49
2022-07-29T23:32:38.894Z,17.40
2022-07-29T23:35:40.949Z,17.41
2022-07-29T23:38:44.232Z,17.41
2022-07-29T23:41:46.344Z,17.40
2022-07-29T23:44:48.967Z,17.36
2022-07-29T23:47:51.191Z,17.41
2022-07-29T23:50:53.663Z,17.41
2022-07-29T23:53:56.058Z,17.44
2022-07-29T23:56:58.819Z,17.26
